sensor_id;sensor_type;location;lat;lon;timestamp;pressure;altitude;pressure_sealevel;temperature;humidity
68807;BME280;55800;54.272;18.558;2022-11-06T00:01:05;101188.72;;;4.04;75.91
68807;BME280;55800;54.272;18.558;2022-11-06T00:03:34;101193.16;;;4.01;75.93
68807;BME280;55800;54.272;18.558;2022-11-06T00:06:05;101194.94;;;3.97;75.90
68807;BME280;55800;54.272;18.558;2022-11-06T00:08:52;101197.63;;;3.94;75.96
68807;BME280;55800;54.272;18.558;2022-11-06T00:11:23;101198.53;;;3.90;76.04
68807;BME280;55800;54.272;18.558;2022-11-06T00:13:52;101201.19;;;3.87;75.94
68807;BME280;55800;54.272;18.558;2022-11-06T00:16:22;101193.25;;;3.84;75.93
68807;BME280;55800;54.272;18.558;2022-11-06T00:18:51;101198.56;;;3.81;75.90
68807;BME280;55800;54.272;18.558;2022-11-06T00:21:23;101193.28;;;3.78;75.94
68807;BME280;55800;54.272;18.558;2022-11-06T00:23:53;101207.41;;;3.74;75.94
68807;BME280;55800;54.272;18.558;2022-11-06T00:26:25;101200.38;;;3.71;75.88
68807;BME280;55800;54.272;18.558;2022-11-06T00:28:55;101198.63;;;3.69;75.88
68807;BME280;55800;54.272;18.558;2022-11-06T00:31:27;101201.28;;;3.66;75.87
68807;BME280;55800;54.272;18.558;2022-11-06T00:33:58;101201.28;;;3.63;75.79
68807;BME280;55800;54.272;18.558;2022-11-06T00:36:29;101199.53;;;3.62;75.80
68807;BME280;55800;54.272;18.558;2022-11-06T00:38:58;101199.56;;;3.60;76.04
68807;BME280;55800;54.272;18.558;2022-11-06T00:41:29;101196.91;;;3.59;76.02
68807;BME280;55800;54.272;18.558;2022-11-06T00:43:59;101196.91;;;3.59;76.05
68807;BME280;55800;54.272;18.558;2022-11-06T00:46:29;101189.88;;;3.58;75.95
68807;BME280;55800;54.272;18.558;2022-11-06T00:48:58;101186.34;;;3.57;76.05
68807;BME280;55800;54.272;18.558;2022-11-06T00:51:29;101182.81;;;3.57;76.09
68807;BME280;55800;54.272;18.558;2022-11-06T00:53:59;101184.56;;;3.56;75.99
68807;BME280;55800;54.272;18.558;2022-11-06T00:56:31;101180.19;;;3.55;76.01
68807;BME280;55800;54.272;18.558;2022-11-06T00:59:02;101189.00;;;3.53;75.87
68807;BME280;55800;54.272;18.558;2022-11-06T01:01:34;101193.41;;;3.51;75.79
68807;BME280;55800;54.272;18.558;2022-11-06T01:04:06;101189.91;;;3.49;75.79
68807;BME280;55800;54.272;18.558;2022-11-06T01:06:37;101189.03;;;3.45;75.93
68807;BME280;55800;54.272;18.558;2022-11-06T01:09:07;101182.88;;;3.43;75.91
68807;BME280;55800;54.272;18.558;2022-11-06T01:11:39;101181.13;;;3.41;75.93
68807;BME280;55800;54.272;18.558;2022-11-06T01:14:29;101182.91;;;3.39;75.90
68807;BME280;55800;54.272;18.558;2022-11-06T01:16:58;101179.38;;;3.37;75.79
68807;BME280;55800;54.272;18.558;2022-11-06T01:19:27;101182.91;;;3.36;76.03
68807;BME280;55800;54.272;18.558;2022-11-06T01:21:57;101196.13;;;3.34;75.83
68807;BME280;55800;54.272;18.558;2022-11-06T01:24:27;101186.47;;;3.30;75.79
68807;BME280;55800;54.272;18.558;2022-11-06T01:26:58;101186.47;;;3.29;75.82
68807;BME280;55800;54.272;18.558;2022-11-06T01:29:47;101186.47;;;3.26;75.73
68807;BME280;55800;54.272;18.558;2022-11-06T01:32:16;101186.47;;;3.23;75.84
68807;BME280;55800;54.272;18.558;2022-11-06T01:34:47;101183.84;;;3.20;75.64
68807;BME280;55800;54.272;18.558;2022-11-06T01:37:17;101181.19;;;3.16;75.81
68807;BME280;55800;54.272;18.558;2022-11-06T01:39:47;101193.53;;;3.14;75.80
68807;BME280;55800;54.272;18.558;2022-11-06T01:42:19;101190.03;;;3.11;75.80
68807;BME280;55800;54.272;18.558;2022-11-06T01:45:28;101188.28;;;3.08;75.65
68807;BME280;55800;54.272;18.558;2022-11-06T01:47:59;101201.47;;;3.05;75.52
68807;BME280;55800;54.272;18.558;2022-11-06T01:50:29;101198.84;;;3.02;75.53
68807;BME280;55800;54.272;18.558;2022-11-06T01:52:58;101189.19;;;2.98;75.61
68807;BME280;55800;54.272;18.558;2022-11-06T01:55:32;101198.88;;;2.96;75.86
68807;BME280;55800;54.272;18.558;2022-11-06T01:58:06;101196.22;;;2.93;75.60
68807;BME280;55800;54.272;18.558;2022-11-06T02:00:36;101200.63;;;2.91;75.53
68807;BME280;55800;54.272;18.558;2022-11-06T02:03:06;101195.38;;;2.88;75.54
68807;BME280;55800;54.272;18.558;2022-11-06T02:05:35;101190.97;;;2.86;75.48
68807;BME280;55800;54.272;18.558;2022-11-06T02:08:06;101190.06;;;2.82;75.49
68807;BME280;55800;54.272;18.558;2022-11-06T02:10:36;101193.59;;;2.78;75.38
68807;BME280;55800;54.272;18.558;2022-11-06T02:13:29;101197.13;;;2.76;75.49
68807;BME280;55800;54.272;18.558;2022-11-06T02:16:06;101194.50;;;2.73;75.70
68807;BME280;55800;54.272;18.558;2022-11-06T02:19:00;101194.53;;;2.71;75.48
68807;BME280;55800;54.272;18.558;2022-11-06T02:22:09;101192.75;;;2.70;75.60
68807;BME280;55800;54.272;18.558;2022-11-06T02:24:54;101189.22;;;2.70;75.71
68807;BME280;55800;54.272;18.558;2022-11-06T02:27:30;101195.38;;;2.70;75.81
68807;BME280;55800;54.272;18.558;2022-11-06T02:30:02;101203.31;;;2.70;75.69
68807;BME280;55800;54.272;18.558;2022-11-06T02:32:35;101198.03;;;2.70;75.91
68807;BME280;55800;54.272;18.558;2022-11-06T02:35:17;101197.16;;;2.71;75.91
68807;BME280;55800;54.272;18.558;2022-11-06T02:37:50;101190.09;;;2.70;75.78
68807;BME280;55800;54.272;18.558;2022-11-06T02:40:23;101184.81;;;2.70;75.84
68807;BME280;55800;54.272;18.558;2022-11-06T02:42:57;101195.38;;;2.70;75.81
68807;BME280;55800;54.272;18.558;2022-11-06T02:45:28;101197.16;;;2.68;75.73
68807;BME280;55800;54.272;18.558;2022-11-06T02:47:59;101192.75;;;2.66;75.60
68807;BME280;55800;54.272;18.558;2022-11-06T02:50:32;101192.75;;;2.64;75.62
68807;BME280;55800;54.272;18.558;2022-11-06T02:53:05;101188.34;;;2.63;75.60
68807;BME280;55800;54.272;18.558;2022-11-06T02:55:38;101189.25;;;2.61;75.76
68807;BME280;55800;54.272;18.558;2022-11-06T02:58:13;101185.72;;;2.60;75.55
68807;BME280;55800;54.272;18.558;2022-11-06T03:00:46;101187.47;;;2.58;75.69
68807;BME280;55800;54.272;18.558;2022-11-06T03:03:22;101190.13;;;2.58;75.62
68807;BME280;55800;54.272;18.558;2022-11-06T03:05:54;101188.34;;;2.57;75.73
68807;BME280;55800;54.272;18.558;2022-11-06T03:08:29;101181.31;;;2.56;75.60
68807;BME280;55800;54.272;18.558;2022-11-06T03:11:05;101176.03;;;2.56;75.75
68807;BME280;55800;54.272;18.558;2022-11-06T03:13:46;101178.69;;;2.56;75.79
68807;BME280;55800;54.272;18.558;2022-11-06T03:16:26;101183.06;;;2.57;75.89
68807;BME280;55800;54.272;18.558;2022-11-06T03:19:02;101180.44;;;2.59;75.94
68807;BME280;55800;54.272;18.558;2022-11-06T03:21:37;101178.69;;;2.61;75.93
68807;BME280;55800;54.272;18.558;2022-11-06T03:24:13;101187.47;;;2.63;75.88
68807;BME280;55800;54.272;18.558;2022-11-06T03:26:47;101187.47;;;2.64;76.12
68807;BME280;55800;54.272;18.558;2022-11-06T03:29:24;101190.13;;;2.64;76.01
68807;BME280;55800;54.272;18.558;2022-11-06T03:32:00;101185.69;;;2.68;76.10
68807;BME280;55800;54.272;18.558;2022-11-06T03:34:36;101192.75;;;2.70;76.05
68807;BME280;55800;54.272;18.558;2022-11-06T03:37:14;101198.91;;;2.72;76.15
68807;BME280;55800;54.272;18.558;2022-11-06T03:39:48;101192.75;;;2.73;76.48
68807;BME280;55800;54.272;18.558;2022-11-06T03:42:23;101192.72;;;2.76;76.24
68807;BME280;55800;54.272;18.558;2022-11-06T03:44:57;101200.66;;;2.79;76.26
68807;BME280;55800;54.272;18.558;2022-11-06T03:47:33;101199.78;;;2.82;76.38
68807;BME280;55800;54.272;18.558;2022-11-06T03:50:08;101199.75;;;2.85;76.37
68807;BME280;55800;54.272;18.558;2022-11-06T03:52:44;101205.03;;;2.86;76.46
68807;BME280;55800;54.272;18.558;2022-11-06T03:55:17;101208.59;;;2.88;76.40
68807;BME280;55800;54.272;18.558;2022-11-06T03:57:50;101207.69;;;2.89;76.62
68807;BME280;55800;54.272;18.558;2022-11-06T04:00:23;101207.69;;;2.92;76.65
68807;BME280;55800;54.272;18.558;2022-11-06T04:02:55;101209.44;;;2.93;76.69
68807;BME280;55800;54.272;18.558;2022-11-06T04:05:34;101208.56;;;2.96;76.74
68807;BME280;55800;54.272;18.558;2022-11-06T04:08:05;101207.69;;;2.98;76.61
68807;BME280;55800;54.272;18.558;2022-11-06T04:10:56;101205.91;;;3.00;76.79
68807;BME280;55800;54.272;18.558;2022-11-06T04:13:46;101206.78;;;3.01;76.71
68807;BME280;55800;54.272;18.558;2022-11-06T04:16:30;101204.13;;;3.02;76.69
68807;BME280;55800;54.272;18.558;2022-11-06T04:19:01;101210.31;;;3.03;76.62
68807;BME280;55800;54.272;18.558;2022-11-06T04:21:46;101205.91;;;3.05;76.70
68807;BME280;55800;54.272;18.558;2022-11-06T04:24:25;101199.72;;;3.04;76.71
68807;BME280;55800;54.272;18.558;2022-11-06T04:27:27;101193.56;;;3.05;76.65
68807;BME280;55800;54.272;18.558;2022-11-06T04:30:06;101183.00;;;3.04;76.66
68807;BME280;55800;54.272;18.558;2022-11-06T04:32:53;101180.34;;;3.04;76.50
68807;BME280;55800;54.272;18.558;2022-11-06T04:35:35;101171.56;;;3.02;76.54
68807;BME280;55800;54.272;18.558;2022-11-06T04:38:14;101173.31;;;3.01;76.50
68807;BME280;55800;54.272;18.558;2022-11-06T04:40:53;101173.31;;;3.00;76.54
68807;BME280;55800;54.272;18.558;2022-11-06T04:43:30;101168.94;;;2.99;76.53
68807;BME280;55800;54.272;18.558;2022-11-06T04:46:08;101168.91;;;2.97;76.47
68807;BME280;55800;54.272;18.558;2022-11-06T04:48:40;101172.44;;;2.98;76.46
68807;BME280;55800;54.272;18.558;2022-11-06T04:51:12;101169.81;;;2.95;76.33
68807;BME280;55800;54.272;18.558;2022-11-06T04:53:43;101179.50;;;2.93;76.36
68807;BME280;55800;54.272;18.558;2022-11-06T04:56:19;101183.06;;;2.90;76.31
68807;BME280;55800;54.272;18.558;2022-11-06T04:58:52;101181.28;;;2.88;76.32
68807;BME280;55800;54.272;18.558;2022-11-06T05:01:21;101183.03;;;2.84;76.21
68807;BME280;55800;54.272;18.558;2022-11-06T05:03:52;101179.53;;;2.81;76.09
68807;BME280;55800;54.272;18.558;2022-11-06T05:06:21;101170.75;;;2.77;75.98
68807;BME280;55800;54.272;18.558;2022-11-06T05:08:56;101172.50;;;2.72;76.12
68807;BME280;55800;54.272;18.558;2022-11-06T05:11:26;101174.28;;;2.69;75.98
68807;BME280;55800;54.272;18.558;2022-11-06T05:13:55;101173.38;;;2.65;75.91
68807;BME280;55800;54.272;18.558;2022-11-06T05:16:24;101177.81;;;2.59;75.92
68807;BME280;55800;54.272;18.558;2022-11-06T05:18:55;101180.44;;;2.54;75.71
68807;BME280;55800;54.272;18.558;2022-11-06T05:21:24;101180.44;;;2.50;75.71
68807;BME280;55800;54.272;18.558;2022-11-06T05:24:11;101181.31;;;2.44;75.69
68807;BME280;55800;54.272;18.558;2022-11-06T05:26:40;101198.91;;;2.39;75.81
68807;BME280;55800;54.272;18.558;2022-11-06T05:29:11;101188.34;;;2.34;75.56
68807;BME280;55800;54.272;18.558;2022-11-06T05:31:40;101205.06;;;2.30;75.62
68807;BME280;55800;54.272;18.558;2022-11-06T05:34:11;101201.53;;;2.25;75.53
68807;BME280;55800;54.272;18.558;2022-11-06T05:36:42;101210.31;;;2.21;75.58
68807;BME280;55800;54.272;18.558;2022-11-06T05:39:11;101210.31;;;2.17;75.52
68807;BME280;55800;54.272;18.558;2022-11-06T05:41:41;101211.19;;;2.11;75.40
68807;BME280;55800;54.272;18.558;2022-11-06T05:44:10;101212.06;;;2.07;75.54
68807;BME280;55800;54.272;18.558;2022-11-06T05:46:39;101215.56;;;2.02;75.47
68807;BME280;55800;54.272;18.558;2022-11-06T05:49:17;101215.56;;;1.99;75.50
68807;BME280;55800;54.272;18.558;2022-11-06T05:51:47;101207.63;;;1.96;75.46
68807;BME280;55800;54.272;18.558;2022-11-06T05:54:16;101213.78;;;1.92;75.34
68807;BME280;55800;54.272;18.558;2022-11-06T05:56:45;101211.16;;;1.89;75.42
68807;BME280;55800;54.272;18.558;2022-11-06T05:59:14;101208.50;;;1.86;75.39
68807;BME280;55800;54.272;18.558;2022-11-06T06:01:44;101210.25;;;1.82;75.40
68807;BME280;55800;54.272;18.558;2022-11-06T06:04:13;101213.72;;;1.78;75.41
68807;BME280;55800;54.272;18.558;2022-11-06T06:06:44;101217.25;;;1.76;75.34
68807;BME280;55800;54.272;18.558;2022-11-06T06:09:13;101225.16;;;1.73;75.34
68807;BME280;55800;54.272;18.558;2022-11-06T06:11:42;101223.38;;;1.69;75.40
68807;BME280;55800;54.272;18.558;2022-11-06T06:14:12;101219.84;;;1.67;75.27
68807;BME280;55800;54.272;18.558;2022-11-06T06:16:41;101235.66;;;1.64;75.37
68807;BME280;55800;54.272;18.558;2022-11-06T06:19:10;101225.13;;;1.61;75.35
68807;BME280;55800;54.272;18.558;2022-11-06T06:21:40;101232.13;;;1.58;75.25
68807;BME280;55800;54.272;18.558;2022-11-06T06:24:11;101231.25;;;1.56;75.27
68807;BME280;55800;54.272;18.558;2022-11-06T06:26:40;101224.19;;;1.55;75.36
68807;BME280;55800;54.272;18.558;2022-11-06T06:29:09;101228.59;;;1.53;75.45
68807;BME280;55800;54.272;18.558;2022-11-06T06:31:38;101233.00;;;1.54;75.35
68807;BME280;55800;54.272;18.558;2022-11-06T06:34:07;101234.75;;;1.55;75.36
68807;BME280;55800;54.272;18.558;2022-11-06T06:36:37;101221.56;;;1.55;75.49
68807;BME280;55800;54.272;18.558;2022-11-06T06:39:06;101229.47;;;1.57;75.52
68807;BME280;55800;54.272;18.558;2022-11-06T06:41:37;101238.28;;;1.59;75.57
68807;BME280;55800;54.272;18.558;2022-11-06T06:44:06;101233.03;;;1.61;75.64
68807;BME280;55800;54.272;18.558;2022-11-06T06:46:35;101231.28;;;1.63;75.56
68807;BME280;55800;54.272;18.558;2022-11-06T06:49:04;101236.56;;;1.67;75.72
68807;BME280;55800;54.272;18.558;2022-11-06T06:51:33;101223.38;;;1.70;75.77
68807;BME280;55800;54.272;18.558;2022-11-06T06:54:02;101224.28;;;1.74;75.90
68807;BME280;55800;54.272;18.558;2022-11-06T06:56:32;101228.69;;;1.78;75.96
68807;BME280;55800;54.272;18.558;2022-11-06T06:59:02;101219.03;;;1.83;75.75
68807;BME280;55800;54.272;18.558;2022-11-06T07:01:32;101219.03;;;1.86;75.95
68807;BME280;55800;54.272;18.558;2022-11-06T07:04:01;101218.19;;;1.90;75.97
68807;BME280;55800;54.272;18.558;2022-11-06T07:06:31;101223.47;;;1.93;75.95
68807;BME280;55800;54.272;18.558;2022-11-06T07:09:00;101229.63;;;1.96;76.10
68807;BME280;55800;54.272;18.558;2022-11-06T07:11:29;101241.06;;;2.01;76.18
68807;BME280;55800;54.272;18.558;2022-11-06T07:13:59;101234.94;;;2.05;76.21
68807;BME280;55800;54.272;18.558;2022-11-06T07:16:30;101237.56;;;2.10;76.22
68807;BME280;55800;54.272;18.558;2022-11-06T07:18:59;101241.09;;;2.13;76.45
68807;BME280;55800;54.272;18.558;2022-11-06T07:21:28;101239.34;;;2.18;76.31
68807;BME280;55800;54.272;18.558;2022-11-06T07:23:58;101236.69;;;2.21;76.47
68807;BME280;55800;54.272;18.558;2022-11-06T07:26:27;101237.56;;;2.25;76.48
68807;BME280;55800;54.272;18.558;2022-11-06T07:28:56;101249.03;;;2.28;76.42
68807;BME280;55800;54.272;18.558;2022-11-06T07:31:25;101239.34;;;2.32;76.55
68807;BME280;55800;54.272;18.558;2022-11-06T07:33:56;101244.66;;;2.35;76.47
68807;BME280;55800;54.272;18.558;2022-11-06T07:36:25;101244.63;;;2.38;76.59
68807;BME280;55800;54.272;18.558;2022-11-06T07:38:54;101250.81;;;2.42;76.55
68807;BME280;55800;54.272;18.558;2022-11-06T07:41:24;101247.28;;;2.44;76.66
68807;BME280;55800;54.272;18.558;2022-11-06T07:43:53;101250.78;;;2.46;76.57
68807;BME280;55800;54.272;18.558;2022-11-06T07:46:22;101249.06;;;2.50;76.68
68807;BME280;55800;54.272;18.558;2022-11-06T07:48:51;101244.66;;;2.53;76.78
68807;BME280;55800;54.272;18.558;2022-11-06T07:51:23;101244.66;;;2.58;77.12
68807;BME280;55800;54.272;18.558;2022-11-06T07:53:52;101247.28;;;2.64;77.18
68807;BME280;55800;54.272;18.558;2022-11-06T07:56:21;101249.06;;;2.72;77.47
68807;BME280;55800;54.272;18.558;2022-11-06T07:58:50;101249.94;;;2.80;77.91
68807;BME280;55800;54.272;18.558;2022-11-06T08:01:20;101249.94;;;2.92;78.13
68807;BME280;55800;54.272;18.558;2022-11-06T08:03:49;101248.16;;;3.02;78.33
68807;BME280;55800;54.272;18.558;2022-11-06T08:06:18;101244.63;;;3.12;78.45
68807;BME280;55800;54.272;18.558;2022-11-06T08:08:49;101251.66;;;3.24;78.60
68807;BME280;55800;54.272;18.558;2022-11-06T08:11:25;101255.16;;;3.35;78.60
68807;BME280;55800;54.272;18.558;2022-11-06T08:13:54;101251.59;;;3.46;78.95
68807;BME280;55800;54.272;18.558;2022-11-06T08:16:23;101250.66;;;3.56;78.86
68807;BME280;55800;54.272;18.558;2022-11-06T08:18:52;101248.88;;;3.67;79.16
68807;BME280;55800;54.272;18.558;2022-11-06T08:21:22;101252.34;;;3.83;79.25
68807;BME280;55800;54.272;18.558;2022-11-06T08:23:52;101259.38;;;3.90;79.28
68807;BME280;55800;54.272;18.558;2022-11-06T08:26:22;101256.66;;;3.99;79.29
68807;BME280;55800;54.272;18.558;2022-11-06T08:28:51;101250.44;;;4.08;79.29
68807;BME280;55800;54.272;18.558;2022-11-06T08:31:21;101245.97;;;4.17;79.45
68807;BME280;55800;54.272;18.558;2022-11-06T08:33:50;101252.09;;;4.25;79.43
68807;BME280;55800;54.272;18.558;2022-11-06T08:36:20;101247.63;;;4.33;79.55
68807;BME280;55800;54.272;18.558;2022-11-06T08:38:52;101256.41;;;4.41;79.48
68807;BME280;55800;54.272;18.558;2022-11-06T08:41:21;101256.38;;;4.49;79.43
68807;BME280;55800;54.272;18.558;2022-11-06T08:43:51;101260.72;;;4.56;79.60
68807;BME280;55800;54.272;18.558;2022-11-06T08:46:20;101262.41;;;4.64;79.61
68807;BME280;55800;54.272;18.558;2022-11-06T08:48:49;101260.56;;;4.77;80.13
68807;BME280;55800;54.272;18.558;2022-11-06T08:51:19;101271.06;;;4.86;79.79
68807;BME280;55800;54.272;18.558;2022-11-06T08:53:48;101257.78;;;4.94;79.90
68807;BME280;55800;54.272;18.558;2022-11-06T08:56:19;101255.03;;;5.01;79.86
68807;BME280;55800;54.272;18.558;2022-11-06T08:58:48;101262.03;;;5.08;80.12
68807;BME280;55800;54.272;18.558;2022-11-06T09:01:22;101260.19;;;5.16;80.25
68807;BME280;55800;54.272;18.558;2022-11-06T09:03:52;101256.59;;;5.23;80.22
68807;BME280;55800;54.272;18.558;2022-11-06T09:06:21;101254.72;;;5.33;80.17
68807;BME280;55800;54.272;18.558;2022-11-06T09:08:50;101248.50;;;5.38;80.11
68807;BME280;55800;54.272;18.558;2022-11-06T09:11:21;101250.16;;;5.47;80.01
68807;BME280;55800;54.272;18.558;2022-11-06T09:13:50;101251.84;;;5.52;80.11
68807;BME280;55800;54.272;18.558;2022-11-06T09:16:20;101251.78;;;5.59;80.06
68807;BME280;55800;54.272;18.558;2022-11-06T09:18:49;101256.13;;;5.66;80.02
68807;BME280;55800;54.272;18.558;2022-11-06T09:21:18;101264.91;;;5.71;80.18
68807;BME280;55800;54.272;18.558;2022-11-06T09:23:47;101252.44;;;5.77;79.96
68807;BME280;55800;54.272;18.558;2022-11-06T09:26:17;101255.00;;;5.83;80.06
68807;BME280;55800;54.272;18.558;2022-11-06T09:28:48;101243.50;;;5.89;80.02
68807;BME280;55800;54.272;18.558;2022-11-06T09:31:18;101245.19;;;5.96;80.24
68807;BME280;55800;54.272;18.558;2022-11-06T09:33:47;101247.72;;;6.03;80.24
68807;BME280;55800;54.272;18.558;2022-11-06T09:36:17;101240.53;;;6.11;80.32
68807;BME280;55800;54.272;18.558;2022-11-06T09:38:46;101239.50;;;6.21;80.29
68807;BME280;55800;54.272;18.558;2022-11-06T09:41:19;101235.81;;;6.30;80.21
68807;BME280;55800;54.272;18.558;2022-11-06T09:44:03;101233.09;;;6.35;80.27
68807;BME280;55800;54.272;18.558;2022-11-06T09:46:42;101236.53;;;6.41;80.43
68807;BME280;55800;54.272;18.558;2022-11-06T09:49:19;101233.78;;;6.49;80.42
68807;BME280;55800;54.272;18.558;2022-11-06T09:51:54;101231.88;;;6.57;80.35
68807;BME280;55800;54.272;18.558;2022-11-06T09:54:28;101230.00;;;6.63;80.38
68807;BME280;55800;54.272;18.558;2022-11-06T09:57:03;101222.81;;;6.70;80.56
68807;BME280;55800;54.272;18.558;2022-11-06T09:59:36;101220.91;;;6.78;80.52
68807;BME280;55800;54.272;18.558;2022-11-06T10:02:21;101220.75;;;6.85;80.62
68807;BME280;55800;54.272;18.558;2022-11-06T10:05:00;101214.44;;;6.92;80.68
68807;BME280;55800;54.272;18.558;2022-11-06T10:07:36;101216.97;;;7.00;80.62
68807;BME280;55800;54.272;18.558;2022-11-06T10:10:14;101217.72;;;7.08;80.74
68807;BME280;55800;54.272;18.558;2022-11-06T10:13:01;101215.72;;;7.19;80.48
68807;BME280;55800;54.272;18.558;2022-11-06T10:15:37;101210.31;;;7.25;80.54
68807;BME280;55800;54.272;18.558;2022-11-06T10:18:17;101211.03;;;7.33;80.56
68807;BME280;55800;54.272;18.558;2022-11-06T10:20:52;101204.66;;;7.40;80.56
68807;BME280;55800;54.272;18.558;2022-11-06T10:23:27;101202.81;;;7.45;80.54
68807;BME280;55800;54.272;18.558;2022-11-06T10:26:06;101202.69;;;7.51;80.49
68807;BME280;55800;54.272;18.558;2022-11-06T10:31:37;101195.38;;;7.62;80.55
68807;BME280;55800;54.272;18.558;2022-11-06T10:34:16;101200.56;;;7.68;80.55
68807;BME280;55800;54.272;18.558;2022-11-06T10:36:51;101195.09;;;7.74;80.50
68807;BME280;55800;54.272;18.558;2022-11-06T10:39:25;101195.88;;;7.79;80.66
68807;BME280;55800;54.272;18.558;2022-11-06T10:41:58;101193.97;;;7.86;80.66
68807;BME280;55800;54.272;18.558;2022-11-06T10:44:32;101192.06;;;7.93;80.52
68807;BME280;55800;54.272;18.558;2022-11-06T10:47:11;101196.31;;;8.00;80.41
68807;BME280;55800;54.272;18.558;2022-11-06T10:49:46;101196.13;;;8.09;80.30
68807;BME280;55800;54.272;18.558;2022-11-06T10:52:36;101188.91;;;8.14;80.38
68807;BME280;55800;54.272;18.558;2022-11-06T10:55:31;101185.22;;;8.19;80.39
68807;BME280;55800;54.272;18.558;2022-11-06T10:58:03;101175.28;;;8.27;80.40
68807;BME280;55800;54.272;18.558;2022-11-06T11:00:34;101179.63;;;8.33;80.51
68807;BME280;55800;54.272;18.558;2022-11-06T11:03:12;101165.31;;;8.37;80.43
68807;BME280;55800;54.272;18.558;2022-11-06T11:05:44;101164.25;;;8.44;80.26
68807;BME280;55800;54.272;18.558;2022-11-06T11:08:36;101155.28;;;8.48;80.39
68807;BME280;55800;54.272;18.558;2022-11-06T11:11:20;101155.00;;;8.57;80.33
68807;BME280;55800;54.272;18.558;2022-11-06T11:14:10;101154.03;;;8.61;80.25
68807;BME280;55800;54.272;18.558;2022-11-06T11:16:42;101145.00;;;8.67;80.37
68807;BME280;55800;54.272;18.558;2022-11-06T11:19:24;101147.50;;;8.73;80.39
68807;BME280;55800;54.272;18.558;2022-11-06T11:21:56;101134.91;;;8.79;80.45
68807;BME280;55800;54.272;18.558;2022-11-06T11:24:26;101139.22;;;8.83;80.33
68807;BME280;55800;54.272;18.558;2022-11-06T11:26:58;101136.41;;;8.89;80.38
68807;BME280;55800;54.272;18.558;2022-11-06T11:29:30;101133.56;;;8.95;80.21
68807;BME280;55800;54.272;18.558;2022-11-06T11:32:03;101135.16;;;9.02;80.14
68807;BME280;55800;54.272;18.558;2022-11-06T11:34:36;101119.09;;;9.05;80.02
68807;BME280;55800;54.272;18.558;2022-11-06T11:37:23;101119.78;;;9.12;80.04
68807;BME280;55800;54.272;18.558;2022-11-06T11:39:54;101117.84;;;9.17;79.91
68807;BME280;55800;54.272;18.558;2022-11-06T11:42:26;101112.38;;;9.21;79.75
68807;BME280;55800;54.272;18.558;2022-11-06T11:45:17;101121.16;;;9.26;79.68
68807;BME280;55800;54.272;18.558;2022-11-06T11:47:48;101120.97;;;9.32;79.47
68807;BME280;55800;54.272;18.558;2022-11-06T11:50:29;101112.00;;;9.35;79.70
68807;BME280;55800;54.272;18.558;2022-11-06T11:53:04;101119.91;;;9.38;79.67
68807;BME280;55800;54.272;18.558;2022-11-06T11:55:39;101121.53;;;9.43;79.83
68807;BME280;55800;54.272;18.558;2022-11-06T11:58:18;101108.09;;;9.47;79.90
68807;BME280;55800;54.272;18.558;2022-11-06T12:00:54;101108.84;;;9.52;79.85
68807;BME280;55800;54.272;18.558;2022-11-06T12:03:27;101106.03;;;9.56;79.37
68807;BME280;55800;54.272;18.558;2022-11-06T12:06:09;101110.38;;;9.60;79.67
68807;BME280;55800;54.272;18.558;2022-11-06T12:08:44;101097.72;;;9.65;79.29
68807;BME280;55800;54.272;18.558;2022-11-06T12:11:18;101102.09;;;9.68;79.66
68807;BME280;55800;54.272;18.558;2022-11-06T12:17:10;101107.25;;;9.74;79.67
68807;BME280;55800;54.272;18.558;2022-11-06T12:19:45;101099.16;;;9.77;79.67
68807;BME280;55800;54.272;18.558;2022-11-06T12:22:24;101100.81;;;9.81;79.62
68807;BME280;55800;54.272;18.558;2022-11-06T12:25:00;101102.47;;;9.85;79.51
68807;BME280;55800;54.272;18.558;2022-11-06T12:27:40;101094.41;;;9.86;79.68
68807;BME280;55800;54.272;18.558;2022-11-06T12:30:13;101094.31;;;9.89;79.69
68807;BME280;55800;54.272;18.558;2022-11-06T12:32:56;101088.00;;;9.92;79.43
68807;BME280;55800;54.272;18.558;2022-11-06T12:35:29;101086.16;;;9.94;79.67
68807;BME280;55800;54.272;18.558;2022-11-06T12:38:06;101086.97;;;9.96;79.55
68807;BME280;55800;54.272;18.558;2022-11-06T12:40:41;101082.47;;;9.98;79.60
68807;BME280;55800;54.272;18.558;2022-11-06T12:43:18;101080.63;;;10.00;79.55
68807;BME280;55800;54.272;18.558;2022-11-06T12:46:02;101079.66;;;10.02;79.38
68807;BME280;55800;54.272;18.558;2022-11-06T12:48:46;101080.53;;;10.03;79.34
68807;BME280;55800;54.272;18.558;2022-11-06T12:51:23;101084.06;;;10.03;79.29
68807;BME280;55800;54.272;18.558;2022-11-06T12:54:09;101078.69;;;10.05;79.18
68807;BME280;55800;54.272;18.558;2022-11-06T12:56:48;101091.09;;;10.06;79.23
68807;BME280;55800;54.272;18.558;2022-11-06T12:59:32;101084.84;;;10.07;79.24
68807;BME280;55800;54.272;18.558;2022-11-06T13:02:18;101081.22;;;10.08;79.30
68807;BME280;55800;54.272;18.558;2022-11-06T13:04:54;101080.31;;;10.09;79.34
68807;BME280;55800;54.272;18.558;2022-11-06T13:07:53;101082.00;;;10.13;79.42
68807;BME280;55800;54.272;18.558;2022-11-06T13:10:39;101082.72;;;10.18;79.57
68807;BME280;55800;54.272;18.558;2022-11-06T13:16:13;101075.44;;;10.23;79.47
68807;BME280;55800;54.272;18.558;2022-11-06T13:18:50;101078.91;;;10.25;79.36
68807;BME280;55800;54.272;18.558;2022-11-06T13:21:27;101072.59;;;10.28;79.12
68807;BME280;55800;54.272;18.558;2022-11-06T13:24:01;101072.66;;;10.26;79.16
68807;BME280;55800;54.272;18.558;2022-11-06T13:26:37;101062.81;;;10.27;79.28
68807;BME280;55800;54.272;18.558;2022-11-06T13:29:10;101065.56;;;10.25;79.18
68807;BME280;55800;54.272;18.558;2022-11-06T13:31:43;101062.00;;;10.25;79.23
68807;BME280;55800;54.272;18.558;2022-11-06T13:34:17;101063.81;;;10.24;79.29